Time;durP1;ratioP1;P1;durP2;ratioP2;P2;SDS_P1;SDS_P2;PMS_P1;PMS_P2;Temp;Humidity;BMP_temperature;BMP_pressure;BME280_temperature;BME280_humidity;BME280_pressure;Samples;Min_cycle;Max_cycle;Signal;HPM_P1;HPM_P2
2022/07/03 00:01:22;;;;;;;;;;;;;;;19.04;71.33;99497.50;5028958;28;19920;-47
2022/07/03 00:03:47;;;;;;;;;;;;;;;19.03;71.96;99490.53;5027901;28;19917;-50
2022/07/03 00:06:13;;;;;;;;;;;;;;;19.02;72.11;99478.31;5029671;28;19963;-51
2022/07/03 00:08:39;;;;;;;;;;;;;;;19.00;72.37;99478.41;5029274;28;19921;-50
2022/07/03 00:11:05;;;;;;;;;;;;;;;19.00;72.15;99472.31;5029334;28;20012;-51
2022/07/03 00:13:30;;;;;;;;;;;;;;;18.96;72.48;99473.47;5029006;28;19917;-49
2022/07/03 00:15:56;;;;;;;;;;;;;;;18.90;72.97;99469.50;5015904;28;19924;-50
2022/07/03 00:18:21;;;;;;;;;;;;;;;18.88;72.61;99475.84;5032934;28;19921;-49
2022/07/03 00:20:54;;;;;;;;;;;;;;;18.87;72.05;99479.41;5010682;28;19924;-50
2022/07/03 00:23:19;;;;;;;;;;;;;;;18.83;71.76;99462.16;5030555;28;20019;-50
2022/07/03 00:25:45;;;;;;;;;;;;;;;18.76;71.96;99468.81;5048940;28;20103;-49
2022/07/03 00:28:10;;;;;;;;;;;;;;;18.72;71.98;99464.72;5048233;28;20074;-48
2022/07/03 00:30:36;;;;;;;;;;;;;;;18.65;72.50;99461.66;5032409;28;19927;-48
2022/07/03 00:33:04;;;;;;;;;;;;;;;18.66;71.69;99465.16;5031894;28;19921;-49
2022/07/03 00:35:33;;;;;;;;;;;;;;;18.69;70.67;99464.91;5056472;28;19940;-52
2022/07/03 00:37:59;;;;;;;;;;;;;;;18.74;69.63;99473.31;5015602;28;19967;-50
2022/07/03 00:40:24;;;;;;;;;;;;;;;18.76;69.49;99476.72;5017990;28;19917;-51
2022/07/03 00:42:53;;;;;;;;;;;;;;;18.75;69.54;99469.75;5027798;28;19917;-50
2022/07/03 00:45:21;;;;;;;;;;;;;;;18.76;70.05;99471.44;5029611;28;19967;-49
2022/07/03 00:47:47;;;;;;;;;;;;;;;18.80;70.79;99462.38;5019577;28;19921;-50
2022/07/03 00:50:13;;;;;;;;;;;;;;;18.90;69.83;99481.81;5028404;28;19924;-48
2022/07/03 00:52:39;;;;;;;;;;;;;;;19.00;69.41;99482.84;5030425;28;20373;-47
2022/07/03 00:55:08;;;;;;;;;;;;;;;19.04;69.64;99481.69;5024789;28;19971;-50
2022/07/03 00:57:34;;;;;;;;;;;;;;;19.02;70.14;99487.06;5062173;28;19917;-49
2022/07/03 01:00:00;;;;;;;;;;;;;;;18.96;71.14;99476.97;5061793;28;19987;-48
2022/07/03 01:02:41;;;;;;;;;;;;;;;18.90;71.70;99477.41;5039090;28;19989;-50
2022/07/03 01:05:06;;;;;;;;;;;;;;;18.91;70.61;99475.59;5027301;28;19925;-48
2022/07/03 01:07:34;;;;;;;;;;;;;;;18.93;70.12;99477.19;5026641;28;19921;-50
2022/07/03 01:10:00;;;;;;;;;;;;;;;18.95;70.05;99479.69;5014424;28;19921;-49
2022/07/03 01:12:37;;;;;;;;;;;;;;;18.94;70.11;99478.88;5028547;28;20293;-49
2022/07/03 01:15:23;;;;;;;;;;;;;;;18.93;70.59;99484.25;5028063;28;19917;-48
2022/07/03 01:17:52;;;;;;;;;;;;;;;18.90;71.08;99473.91;5021523;28;19967;-49
2022/07/03 01:20:22;;;;;;;;;;;;;;;18.92;70.97;99472.88;5025412;28;19921;-50
2022/07/03 01:22:49;;;;;;;;;;;;;;;18.93;70.82;99479.00;5022797;28;19924;-48
2022/07/03 01:25:24;;;;;;;;;;;;;;;18.97;70.35;99485.72;5024446;28;19983;-48
2022/07/03 01:27:59;;;;;;;;;;;;;;;18.97;70.42;99476.00;5025401;28;20031;-51
2022/07/03 01:30:25;;;;;;;;;;;;;;;18.94;71.46;99481.53;5030549;28;19923;-49
2022/07/03 01:32:58;;;;;;;;;;;;;;;18.90;71.82;99474.75;5032358;28;20416;-47
2022/07/03 01:35:28;;;;;;;;;;;;;;;18.91;71.73;99476.44;5031580;28;19924;-50
2022/07/03 01:37:54;;;;;;;;;;;;;;;18.91;71.73;99475.59;5024989;28;19917;-48
2022/07/03 01:40:21;;;;;;;;;;;;;;;18.92;71.84;99469.41;5028349;28;20377;-48
2022/07/03 01:42:47;;;;;;;;;;;;;;;18.92;72.07;99474.66;5051141;28;19940;-48
2022/07/03 01:45:13;;;;;;;;;;;;;;;18.93;71.83;99474.56;5023797;28;20302;-47
2022/07/03 01:47:42;;;;;;;;;;;;;;;18.97;71.72;99477.81;5018380;28;19921;-48
2022/07/03 01:50:10;;;;;;;;;;;;;;;18.99;71.44;99470.66;5047020;28;20377;-48
2022/07/03 01:52:37;;;;;;;;;;;;;;;19.01;71.61;99474.00;5054201;28;20416;-50
2022/07/03 01:55:03;;;;;;;;;;;;;;;19.01;71.85;99471.34;5043826;28;20389;-49
2022/07/03 01:57:32;;;;;;;;;;;;;;;19.02;71.84;99471.25;5035084;28;20015;-50
2022/07/03 01:59:59;;;;;;;;;;;;;;;19.04;71.95;99474.63;5030449;28;19923;-48
2022/07/03 02:02:25;;;;;;;;;;;;;;;19.07;71.64;99476.19;5061732;28;19935;-48
2022/07/03 02:04:55;;;;;;;;;;;;;;;19.10;71.55;99478.63;5047065;28;20369;-49
2022/07/03 02:07:24;;;;;;;;;;;;;;;19.12;71.50;99473.22;5046282;28;19921;-51
2022/07/03 02:09:52;;;;;;;;;;;;;;;19.14;71.54;99472.16;5018319;28;19928;-48
2022/07/03 02:12:18;;;;;;;;;;;;;;;19.14;71.52;99476.59;5051401;28;20312;-49
2022/07/03 02:14:48;;;;;;;;;;;;;;;19.17;71.21;99476.34;5044179;28;20360;-49
2022/07/03 02:17:18;;;;;;;;;;;;;;;19.19;70.91;99472.66;5028890;28;19917;-49
2022/07/03 02:19:54;;;;;;;;;;;;;;;19.23;70.54;99474.13;5028182;28;20027;-50
2022/07/03 02:22:27;;;;;;;;;;;;;;;19.28;70.11;99463.25;5011586;28;19917;-51
2022/07/03 02:24:53;;;;;;;;;;;;;;;19.31;69.66;99469.13;5024526;28;19917;-48
2022/07/03 02:27:22;;;;;;;;;;;;;;;19.35;69.52;99464.47;5058461;28;19928;-51
2022/07/03 02:29:56;;;;;;;;;;;;;;;19.39;69.30;99469.41;5013355;28;19917;-48
2022/07/03 02:32:22;;;;;;;;;;;;;;;19.43;68.73;99470.84;5011844;28;20373;-50
2022/07/03 02:34:49;;;;;;;;;;;;;;;19.48;68.38;99469.69;5030492;28;19917;-48
2022/07/03 02:37:18;;;;;;;;;;;;;;;19.51;68.00;99467.69;5030227;28;20015;-48
2022/07/03 02:39:57;;;;;;;;;;;;;;;19.55;67.51;99465.66;5017062;28;19917;-48
2022/07/03 02:42:30;;;;;;;;;;;;;;;19.57;67.19;99459.34;5015450;28;19916;-47
2022/07/03 02:44:57;;;;;;;;;;;;;;;19.61;66.00;99463.41;5044358;28;19927;-46
2022/07/03 02:47:32;;;;;;;;;;;;;;;19.66;65.35;99465.69;5030531;28;19921;-48
2022/07/03 02:50:10;;;;;;;;;;;;;;;19.71;65.15;99464.41;5022277;28;19925;-50
2022/07/03 02:52:37;;;;;;;;;;;;;;;19.75;64.64;99457.09;5025847;28;19940;-48
2022/07/03 02:55:23;;;;;;;;;;;;;;;19.79;64.43;99463.81;5059735;28;20022;-49
2022/07/03 02:57:51;;;;;;;;;;;;;;;19.82;63.83;99460.94;5023290;28;20000;-50
2022/07/03 03:00:16;;;;;;;;;;;;;;;19.85;63.48;99469.47;5015624;28;19921;-49
2022/07/03 03:02:57;;;;;;;;;;;;;;;19.88;63.27;99471.88;5042620;28;19917;-51
2022/07/03 03:05:43;;;;;;;;;;;;;;;19.91;63.09;99470.81;5046144;28;19916;-49
2022/07/03 03:08:12;;;;;;;;;;;;;;;19.94;62.92;99469.75;5059153;28;19925;-49
2022/07/03 03:10:39;;;;;;;;;;;;;;;19.96;62.46;99468.66;5021745;28;19920;-47
2022/07/03 03:13:04;;;;;;;;;;;;;;;19.99;62.19;99467.59;5015717;28;19917;-50
2022/07/03 03:15:30;;;;;;;;;;;;;;;19.99;61.76;99457.03;5011529;28;19924;-54
2022/07/03 03:18:08;;;;;;;;;;;;;;;20.07;61.78;99468.69;5054331;28;19992;-49
2022/07/03 03:20:35;;;;;;;;;;;;;;;20.11;61.64;99474.56;5058723;28;20011;-48
2022/07/03 03:23:18;;;;;;;;;;;;;;;20.14;61.56;99469.06;5023572;28;20530;-50
2022/07/03 03:25:44;;;;;;;;;;;;;;;20.14;61.32;99475.19;5030426;28;20417;-47
2022/07/03 03:28:09;;;;;;;;;;;;;;;20.19;61.31;99469.53;5005509;28;19922;-46
2022/07/03 03:30:35;;;;;;;;;;;;;;;20.22;60.95;99470.13;5010266;28;19917;-47
2022/07/03 03:33:01;;;;;;;;;;;;;;;20.27;60.99;99477.69;5039747;28;20423;-49
2022/07/03 03:35:27;;;;;;;;;;;;;;;20.30;60.83;99469.56;5028585;28;20011;-51
2022/07/03 03:37:53;;;;;;;;;;;;;;;20.34;60.56;99465.75;5024765;28;19923;-52
2022/07/03 03:40:19;;;;;;;;;;;;;;;20.38;60.71;99466.31;5021124;28;19917;-48
2022/07/03 03:42:44;;;;;;;;;;;;;;;20.40;60.23;99457.34;5016649;28;19917;-51
2022/07/03 03:45:10;;;;;;;;;;;;;;;20.44;60.20;99461.41;5027755;28;20416;-47
2022/07/03 03:47:36;;;;;;;;;;;;;;;20.47;60.13;99463.81;5021835;28;20503;-48
2022/07/03 03:50:01;;;;;;;;;;;;;;;20.49;60.35;99461.06;5057621;28;19924;-49
2022/07/03 03:52:29;;;;;;;;;;;;;;;20.53;60.24;99455.41;5020809;28;20368;-47
2022/07/03 03:54:55;;;;;;;;;;;;;;;20.57;59.97;99459.47;5031342;28;20008;-49
2022/07/03 03:57:20;;;;;;;;;;;;;;;20.61;59.99;99458.28;5029792;28;20016;-50
2022/07/03 03:59:46;;;;;;;;;;;;;;;20.65;60.14;99448.31;5019033;28;20023;-46
2022/07/03 04:02:12;;;;;;;;;;;;;;;20.69;59.99;99452.38;5015060;28;19917;-50
2022/07/03 04:04:38;;;;;;;;;;;;;;;20.70;59.90;99452.28;5027358;28;19921;-50
2022/07/03 04:07:03;;;;;;;;;;;;;;;20.73;59.82;99451.19;5031560;28;19921;-49
2022/07/03 04:09:29;;;;;;;;;;;;;;;20.77;59.74;99449.16;5025446;28;19920;-46
2022/07/03 04:11:54;;;;;;;;;;;;;;;20.82;59.90;99444.34;5030546;28;19992;-47
2022/07/03 04:14:21;;;;;;;;;;;;;;;20.86;59.87;99445.75;5030112;28;20434;-50
2022/07/03 04:16:46;;;;;;;;;;;;;;;20.91;59.76;99448.88;5026880;28;19929;-47
2022/07/03 04:19:12;;;;;;;;;;;;;;;20.95;59.79;99458.22;5063346;28;19924;-46
2022/07/03 04:21:38;;;;;;;;;;;;;;;20.98;59.77;99464.13;5027691;28;19923;-50
2022/07/03 04:24:03;;;;;;;;;;;;;;;21.03;59.59;99461.94;5060318;28;19982;-50
2022/07/03 04:26:29;;;;;;;;;;;;;;;21.08;59.59;99448.34;5033085;28;19916;-54
2022/07/03 04:28:55;;;;;;;;;;;;;;;21.13;59.57;99446.19;5026838;28;19924;-48
2022/07/03 04:31:20;;;;;;;;;;;;;;;21.19;59.49;99443.06;5032134;28;20448;-50
2022/07/03 04:33:46;;;;;;;;;;;;;;;21.25;59.58;99449.66;5031469;28;19921;-50
2022/07/03 04:36:11;;;;;;;;;;;;;;;21.30;59.46;99452.75;5032115;28;19995;-50
2022/07/03 04:38:37;;;;;;;;;;;;;;;21.36;59.28;99445.16;5022243;28;19924;-47
2022/07/03 04:41:02;;;;;;;;;;;;;;;21.43;59.32;99456.06;5030866;28;19918;-49
2022/07/03 04:43:29;;;;;;;;;;;;;;;21.49;59.39;99448.47;5031436;28;19917;-50
2022/07/03 04:45:55;;;;;;;;;;;;;;;21.56;59.33;99448.81;5032449;28;19917;-50
2022/07/03 04:48:20;;;;;;;;;;;;;;;21.64;59.24;99456.09;5065008;28;19921;-49
2022/07/03 04:50:46;;;;;;;;;;;;;;;21.71;59.42;99451.97;5017758;28;20003;-47
2022/07/03 04:53:11;;;;;;;;;;;;;;;21.78;59.27;99453.97;5018902;28;19921;-50
2022/07/03 04:55:37;;;;;;;;;;;;;;;21.85;59.21;99451.63;5032773;28;19916;-50
2022/07/03 04:58:02;;;;;;;;;;;;;;;21.90;59.30;99450.28;5032881;28;19924;-49
2022/07/03 05:00:28;;;;;;;;;;;;;;;21.98;59.06;99451.47;5064191;28;19921;-47
2022/07/03 05:02:53;;;;;;;;;;;;;;;22.06;58.86;99456.97;5064776;28;19917;-48
2022/07/03 05:05:19;;;;;;;;;;;;;;;22.12;58.71;99443.19;5032433;28;20288;-49
2022/07/03 05:07:45;;;;;;;;;;;;;;;22.18;58.76;99440.88;5032567;28;19921;-48
2022/07/03 05:10:11;;;;;;;;;;;;;;;22.23;58.61;99443.97;5067331;28;20319;-47
2022/07/03 05:12:36;;;;;;;;;;;;;;;22.30;58.46;99445.09;5037144;28;20397;-48
2022/07/03 05:15:04;;;;;;;;;;;;;;;22.37;58.44;99443.59;5000815;28;19983;-49
2022/07/03 05:17:29;;;;;;;;;;;;;;;22.46;58.34;99441.09;5028893;28;20013;-49
2022/07/03 05:22:39;;;;;;;;;;;;;;;22.61;58.14;99430.00;5032037;28;19952;-48
2022/07/03 05:25:05;;;;;;;;;;;;;;;22.69;58.07;99442.59;5029939;28;20054;-53
2022/07/03 05:27:30;;;;;;;;;;;;;;;22.78;57.79;99439.16;5031105;28;20075;-50
2022/07/03 05:29:57;;;;;;;;;;;;;;;22.88;57.52;99434.72;5031975;28;19970;-47
2022/07/03 05:32:23;;;;;;;;;;;;;;;22.98;57.38;99435.56;5030688;28;20407;-49
2022/07/03 05:34:48;;;;;;;;;;;;;;;23.07;57.37;99440.06;5031731;28;19917;-50
2022/07/03 05:37:14;;;;;;;;;;;;;;;23.18;57.26;99439.09;5031964;28;19924;-50
2022/07/03 05:39:40;;;;;;;;;;;;;;;23.28;57.08;99439.94;5030116;28;19940;-51
2022/07/03 05:42:06;;;;;;;;;;;;;;;23.37;56.98;99430.28;5031997;28;19916;-48
2022/07/03 05:44:31;;;;;;;;;;;;;;;23.46;56.74;99443.59;5030790;28;19920;-51
2022/07/03 05:46:57;;;;;;;;;;;;;;;23.55;56.59;99437.44;5013899;28;19943;-50
2022/07/03 05:49:22;;;;;;;;;;;;;;;23.68;56.36;99433.66;5025416;28;19917;-50
2022/07/03 05:51:48;;;;;;;;;;;;;;;23.78;56.03;99434.47;5029804;28;20518;-49
2022/07/03 05:54:14;;;;;;;;;;;;;;;23.89;55.77;99436.97;5019174;28;20016;-50
2022/07/03 05:56:39;;;;;;;;;;;;;;;24.04;55.30;99432.88;5031686;28;19916;-49
2022/07/03 05:59:05;;;;;;;;;;;;;;;24.17;55.14;99440.53;5013525;28;19917;-50
2022/07/03 06:01:31;;;;;;;;;;;;;;;24.27;54.97;99439.56;5031471;28;19917;-51
2022/07/03 06:03:56;;;;;;;;;;;;;;;24.38;54.87;99433.22;5013388;28;19921;-48
2022/07/03 06:06:22;;;;;;;;;;;;;;;24.46;54.49;99436.81;5030017;28;19923;-48
2022/07/03 06:08:48;;;;;;;;;;;;;;;24.57;54.25;99438.44;5030451;28;20463;-51
2022/07/03 06:11:15;;;;;;;;;;;;;;;24.69;53.75;99436.44;5029987;28;19921;-48
2022/07/03 06:13:41;;;;;;;;;;;;;;;24.80;53.50;99439.72;5062348;28;19967;-51
2022/07/03 06:16:06;;;;;;;;;;;;;;;24.94;53.26;99441.06;5031310;28;19924;-48
2022/07/03 06:18:33;;;;;;;;;;;;;;;25.07;53.18;99436.22;5031134;28;20454;-49
2022/07/03 06:20:58;;;;;;;;;;;;;;;25.19;52.51;99435.00;5030763;28;20393;-52
2022/07/03 06:23:24;;;;;;;;;;;;;;;25.31;52.05;99435.63;5029286;28;19917;-48
2022/07/03 06:25:49;;;;;;;;;;;;;;;25.47;52.24;99442.91;5031046;28;20082;-49
2022/07/03 06:28:15;;;;;;;;;;;;;;;25.61;51.68;99443.25;5029123;28;20681;-56
2022/07/03 06:30:41;;;;;;;;;;;;;;;25.73;51.44;99434.03;5029773;28;19963;-47
2022/07/03 06:33:06;;;;;;;;;;;;;;;25.90;51.03;99429.66;5030825;28;19967;-48
2022/07/03 06:35:32;;;;;;;;;;;;;;;26.08;50.83;99425.09;5028314;28;19924;-52
2022/07/03 06:38:02;;;;;;;;;;;;;;;26.28;50.32;99435.53;5030451;28;19917;-48
2022/07/03 06:40:27;;;;;;;;;;;;;;;26.50;49.57;99429.66;5030737;28;19916;-49
2022/07/03 06:42:53;;;;;;;;;;;;;;;26.84;49.09;99425.13;5029711;28;19923;-49
2022/07/03 06:45:18;;;;;;;;;;;;;;;27.42;47.98;99437.63;5012425;28;19916;-53
2022/07/03 06:47:44;;;;;;;;;;;;;;;28.22;46.58;99434.06;5029507;28;19925;-48
2022/07/03 06:50:10;;;;;;;;;;;;;;;29.19;44.10;99431.97;5011595;28;20377;-48
2022/07/03 06:52:35;;;;;;;;;;;;;;;30.29;41.72;99431.38;5020732;28;19995;-49
2022/07/03 06:55:01;;;;;;;;;;;;;;;31.34;40.38;99438.06;5019768;28;19916;-48
2022/07/03 06:57:27;;;;;;;;;;;;;;;32.40;38.26;99438.94;5062340;28;19944;-48
2022/07/03 06:59:52;;;;;;;;;;;;;;;33.42;36.31;99445.16;5030582;28;19997;-46
2022/07/03 07:02:18;;;;;;;;;;;;;;;34.43;34.80;99443.91;5028569;28;20403;-49
2022/07/03 07:04:43;;;;;;;;;;;;;;;35.55;33.23;99440.66;5030461;28;19920;-50
2022/07/03 07:07:09;;;;;;;;;;;;;;;36.51;31.57;99441.03;5028910;28;20453;-47
2022/07/03 07:09:34;;;;;;;;;;;;;;;37.45;29.94;99448.59;5030528;28;19928;-52
2022/07/03 07:12:00;;;;;;;;;;;;;;;38.40;28.98;99446.56;5030068;28;20359;-48
2022/07/03 07:14:25;;;;;;;;;;;;;;;39.22;27.34;99449.88;5030433;28;20139;-51
2022/07/03 07:16:51;;;;;;;;;;;;;;;39.94;26.41;99451.97;5029066;28;20003;-54
2022/07/03 07:19:16;;;;;;;;;;;;;;;40.63;25.07;99450.53;5030263;28;20016;-50
2022/07/03 07:21:42;;;;;;;;;;;;;;;41.42;23.94;99450.88;5028810;28;19917;-48
2022/07/03 07:24:08;;;;;;;;;;;;;;;41.95;23.28;99455.47;5032280;28;19921;-50
2022/07/03 07:26:33;;;;;;;;;;;;;;;42.62;22.48;99452.03;5027353;28;19975;-50
2022/07/03 07:28:59;;;;;;;;;;;;;;;43.25;21.31;99448.16;5035647;28;19924;-47
2022/07/03 07:31:24;;;;;;;;;;;;;;;43.83;21.01;99454.22;5036579;28;19923;-50
2022/07/03 07:33:52;;;;;;;;;;;;;;;44.32;20.15;99451.72;5035637;28;20019;-50
2022/07/03 07:36:17;;;;;;;;;;;;;;;44.84;19.56;99454.00;5036582;28;19916;-51
2022/07/03 07:38:43;;;;;;;;;;;;;;;45.30;18.94;99459.22;5036023;28;20376;-51
2022/07/03 07:41:09;;;;;;;;;;;;;;;45.56;18.12;99457.97;5037067;28;19924;-50
2022/07/03 07:43:34;;;;;;;;;;;;;;;45.81;18.11;99452.25;5033466;28;19917;-51
2022/07/03 07:46:00;;;;;;;;;;;;;;;46.06;17.45;99447.63;5035153;28;19998;-49
2022/07/03 07:48:25;;;;;;;;;;;;;;;46.47;17.13;99442.50;5030770;28;19963;-52
2022/07/03 07:50:51;;;;;;;;;;;;;;;46.63;16.34;99447.56;5034764;28;20015;-48
2022/07/03 07:53:17;;;;;;;;;;;;;;;46.82;16.41;99455.00;5030129;28;19921;-50
2022/07/03 07:55:43;;;;;;;;;;;;;;;47.21;16.13;99450.06;5030021;28;19920;-52
2022/07/03 07:58:09;;;;;;;;;;;;;;;47.49;15.82;99446.31;5038409;28;19916;-49
2022/07/03 08:00:34;;;;;;;;;;;;;;;47.82;15.75;99446.34;5035577;28;19924;-52
2022/07/03 08:05:44;;;;;;;;;;;;;;;47.63;15.64;99435.38;5036336;28;20007;-49
2022/07/03 08:08:09;;;;;;;;;;;;;;;47.95;15.08;99451.88;5068899;28;20428;-52
2022/07/03 08:10:39;;;;;;;;;;;;;;;48.09;14.67;99454.69;5033962;28;19925;-50
2022/07/03 08:13:05;;;;;;;;;;;;;;;48.37;14.62;99447.25;5028795;28;19917;-48
2022/07/03 08:15:33;;;;;;;;;;;;;;;48.48;14.59;99436.81;5017626;28;19930;-48
2022/07/03 08:18:01;;;;;;;;;;;;;;;48.47;14.33;99441.56;5031786;28;19933;-52
2022/07/03 08:20:27;;;;;;;;;;;;;;;48.91;14.26;99443.63;5052583;28;19986;-51
2022/07/03 08:22:53;;;;;;;;;;;;;;;48.94;14.03;99444.97;5025540;28;20400;-50
2022/07/03 08:25:19;;;;;;;;;;;;;;;47.99;14.99;99444.69;5062985;28;19916;-49
2022/07/03 08:27:44;;;;;;;;;;;;;;;45.66;16.29;99451.53;5035927;28;19920;-51
2022/07/03 08:30:10;;;;;;;;;;;;;;;45.20;16.50;99449.13;5036384;28;19964;-49
2022/07/03 08:32:36;;;;;;;;;;;;;;;46.47;15.47;99446.09;5036278;28;19924;-49
2022/07/03 08:35:01;;;;;;;;;;;;;;;47.64;14.49;99441.69;5032796;28;19916;-50
2022/07/03 08:37:28;;;;;;;;;;;;;;;48.20;14.58;99438.75;5032341;28;19963;-49
2022/07/03 08:39:54;;;;;;;;;;;;;;;48.51;14.28;99444.50;5032942;28;19948;-48
2022/07/03 08:42:20;;;;;;;;;;;;;;;47.82;14.88;99432.56;5033079;28;19928;-49
2022/07/03 08:44:46;;;;;;;;;;;;;;;47.34;15.11;99438.31;5031712;28;19917;-49
2022/07/03 08:47:12;;;;;;;;;;;;;;;47.61;15.19;99437.59;5032938;28;19927;-49
2022/07/03 08:49:37;;;;;;;;;;;;;;;47.07;15.87;99433.47;5032672;28;19952;-52
2022/07/03 08:52:07;;;;;;;;;;;;;;;46.97;15.58;99432.81;5026708;28;19923;-51
2022/07/03 08:54:33;;;;;;;;;;;;;;;47.37;15.18;99425.88;5032970;28;20119;-50
2022/07/03 08:57:00;;;;;;;;;;;;;;;47.44;15.47;99427.13;5026952;28;20035;-50
2022/07/03 08:59:25;;;;;;;;;;;;;;;48.16;14.79;99429.44;5028804;28;19921;-51
2022/07/03 09:01:51;;;;;;;;;;;;;;;48.80;14.14;99429.25;5057850;28;19967;-52
2022/07/03 09:04:16;;;;;;;;;;;;;;;49.11;13.71;99418.31;5027071;28;19999;-50
2022/07/03 09:06:42;;;;;;;;;;;;;;;49.50;13.71;99423.19;5032374;28;20384;-48
2022/07/03 09:09:10;;;;;;;;;;;;;;;49.91;13.23;99435.97;5032212;28;20459;-50
2022/07/03 09:11:36;;;;;;;;;;;;;;;50.17;13.35;99438.88;5029181;28;20011;-49
2022/07/03 09:14:06;;;;;;;;;;;;;;;50.40;13.14;99435.72;5030688;28;20535;-51
2022/07/03 09:16:35;;;;;;;;;;;;;;;50.72;12.84;99434.47;5031930;28;19921;-48
2022/07/03 09:19:02;;;;;;;;;;;;;;;50.42;12.77;99436.19;5032225;28;20380;-48
2022/07/03 09:21:35;;;;;;;;;;;;;;;47.45;14.67;99415.00;5026449;28;19921;-49
2022/07/03 09:24:03;;;;;;;;;;;;;;;46.58;15.35;99424.78;5026439;28;19917;-56
2022/07/03 09:26:29;;;;;;;;;;;;;;;46.25;15.87;99423.78;5036826;28;19917;-55
2022/07/03 09:28:55;;;;;;;;;;;;;;;46.32;15.61;99418.78;5056970;28;20407;-50
2022/07/03 09:31:22;;;;;;;;;;;;;;;46.63;15.42;99416.47;5031841;28;19916;-48
2022/07/03 09:33:57;;;;;;;;;;;;;;;46.45;15.13;99420.78;5031170;28;19952;-50
2022/07/03 09:36:43;;;;;;;;;;;;;;;44.72;16.21;99413.16;5029490;28;19921;-47
2022/07/03 09:39:21;;;;;;;;;;;;;;;44.39;16.53;99416.56;5030818;28;19920;-49
2022/07/03 09:42:14;;;;;;;;;;;;;;;45.93;15.49;99427.13;5039919;28;19916;-53
2022/07/03 09:44:46;;;;;;;;;;;;;;;46.71;14.48;99424.88;5036791;28;19917;-47
2022/07/03 09:47:12;;;;;;;;;;;;;;;46.90;14.66;99421.31;5029960;28;20312;-49
2022/07/03 09:49:51;;;;;;;;;;;;;;;47.05;14.36;99421.13;5029828;28;19917;-51
2022/07/03 09:52:39;;;;;;;;;;;;;;;47.51;13.87;99418.47;5025108;28;20013;-50
2022/07/03 09:55:12;;;;;;;;;;;;;;;46.96;14.14;99412.72;5026918;28;19917;-49
2022/07/03 09:57:59;;;;;;;;;;;;;;;47.26;14.33;99414.19;5030218;28;19917;-48
2022/07/03 10:00:32;;;;;;;;;;;;;;;47.66;13.78;99414.66;5027029;28;20339;-49
2022/07/03 10:03:05;;;;;;;;;;;;;;;48.07;13.52;99412.81;5023757;28;19917;-48
2022/07/03 10:05:34;;;;;;;;;;;;;;;48.21;13.65;99419.13;5030363;28;19917;-48
2022/07/03 10:08:03;;;;;;;;;;;;;;;48.39;13.07;99417.41;5022438;28;19929;-49
2022/07/03 10:10:30;;;;;;;;;;;;;;;48.59;12.93;99413.41;5029272;28;20019;-48
2022/07/03 10:12:56;;;;;;;;;;;;;;;48.56;12.82;99416.78;5027706;28;20004;-48
2022/07/03 10:15:22;;;;;;;;;;;;;;;48.60;12.89;99407.59;5027760;28;20016;-48
2022/07/03 10:17:50;;;;;;;;;;;;;;;48.72;12.87;99413.44;5030193;28;19943;-50
2022/07/03 10:20:16;;;;;;;;;;;;;;;48.65;12.76;99407.47;5028664;28;19962;-50
2022/07/03 10:22:42;;;;;;;;;;;;;;;48.56;12.72;99414.84;5057459;28;20310;-47
2022/07/03 10:25:08;;;;;;;;;;;;;;;48.61;12.76;99414.75;5029151;28;19970;-46
2022/07/03 10:27:34;;;;;;;;;;;;;;;48.44;12.83;99416.50;5029454;28;20400;-48
2022/07/03 10:29:59;;;;;;;;;;;;;;;47.97;13.18;99413.78;5046338;28;19923;-51
2022/07/03 10:32:25;;;;;;;;;;;;;;;48.12;12.98;99406.38;5011080;28;20325;-50
2022/07/03 10:34:50;;;;;;;;;;;;;;;48.08;12.97;99399.84;5028834;28;20407;-48
2022/07/03 10:37:16;;;;;;;;;;;;;;;48.27;12.95;99406.88;5062912;28;19924;-50
2022/07/03 10:44:45;;;;;;;;;;;;;;;48.35;12.90;99414.47;5061551;28;20384;-50
2022/07/03 10:45:26;;;;;;;;;;;;;;;47.79;12.83;99402.84;5028823;28;20019;-56
2022/07/03 10:47:52;;;;;;;;;;;;;;;47.88;12.86;99412.88;5030551;28;19921;-53
2022/07/03 10:50:20;;;;;;;;;;;;;;;48.09;13.01;99407.00;5030710;28;19967;-55
2022/07/03 10:52:48;;;;;;;;;;;;;;;48.33;12.93;99402.06;5012702;28;19917;-54
2022/07/03 10:55:14;;;;;;;;;;;;;;;48.45;12.69;99401.56;5028529;28;20286;-54
2022/07/03 10:57:40;;;;;;;;;;;;;;;48.62;12.66;99399.00;5012202;28;19920;-54
2022/07/03 11:00:08;;;;;;;;;;;;;;;48.96;12.42;99398.50;5029250;28;19939;-53
2022/07/03 11:02:44;;;;;;;;;;;;;;;49.05;12.22;99399.38;5030403;28;20384;-54
2022/07/03 11:05:11;;;;;;;;;;;;;;;48.97;12.34;99400.16;5030395;28;20360;-55
2022/07/03 11:07:43;;;;;;;;;;;;;;;49.27;12.45;99395.84;5030416;28;19921;-55
2022/07/03 11:10:10;;;;;;;;;;;;;;;49.40;12.37;99397.75;5029161;28;19956;-52
2022/07/03 11:12:58;;;;;;;;;;;;;;;49.47;12.16;99398.13;5030455;28;20593;-53
2022/07/03 11:15:28;;;;;;;;;;;;;;;49.60;11.95;99395.28;5030135;28;19917;-54
2022/07/03 11:18:06;;;;;;;;;;;;;;;49.78;11.81;99389.88;5025261;28;20024;-54
2022/07/03 11:20:32;;;;;;;;;;;;;;;50.04;11.70;99382.50;5010586;28;19960;-56
2022/07/03 11:23:07;;;;;;;;;;;;;;;50.03;11.79;99395.53;5008087;28;19976;-56
2022/07/03 11:25:42;;;;;;;;;;;;;;;50.17;11.43;99389.06;5010528;28;19956;-54
2022/07/03 11:28:07;;;;;;;;;;;;;;;50.39;11.40;99383.44;5009837;28;19956;-54
2022/07/03 11:30:36;;;;;;;;;;;;;;;50.43;11.43;99392.72;5010485;28;19917;-54
2022/07/03 11:33:02;;;;;;;;;;;;;;;50.50;11.57;99375.66;5025413;28;19917;-55
2022/07/03 11:35:47;;;;;;;;;;;;;;;50.50;11.28;99378.44;5010190;28;20290;-52
2022/07/03 11:38:17;;;;;;;;;;;;;;;50.55;11.46;99390.19;5009208;28;19917;-55
2022/07/03 11:40:44;;;;;;;;;;;;;;;50.63;11.37;99385.78;5010274;28;19972;-56
2022/07/03 11:43:13;;;;;;;;;;;;;;;50.75;11.34;99383.19;5009932;28;19917;-52
2022/07/03 11:45:42;;;;;;;;;;;;;;;50.72;11.06;99378.31;5010285;28;20026;-54
2022/07/03 11:48:09;;;;;;;;;;;;;;;50.65;10.73;99381.56;5010009;28;19968;-54
2022/07/03 11:50:38;;;;;;;;;;;;;;;50.51;11.19;99375.34;5041946;28;19924;-54
2022/07/03 11:53:16;;;;;;;;;;;;;;;50.49;11.24;99374.03;5010229;28;19918;-56
2022/07/03 11:55:46;;;;;;;;;;;;;;;50.53;11.10;99369.47;5008926;28;19964;-53
2022/07/03 11:58:11;;;;;;;;;;;;;;;50.54;11.03;99377.47;5008911;28;19924;-53
2022/07/03 12:00:37;;;;;;;;;;;;;;;50.50;11.00;99378.44;5010222;28;19921;-54
2022/07/03 12:03:03;;;;;;;;;;;;;;;50.51;10.77;99383.66;5010240;28;19917;-56
2022/07/03 12:05:29;;;;;;;;;;;;;;;50.55;10.99;99378.28;5009979;28;19956;-52
2022/07/03 12:08:04;;;;;;;;;;;;;;;50.52;11.08;99367.84;5010126;28;19968;-54
2022/07/03 12:10:39;;;;;;;;;;;;;;;50.61;10.72;99366.72;5045216;28;19921;-53
2022/07/03 12:13:18;;;;;;;;;;;;;;;50.51;10.92;99367.06;5029203;28;20047;-51
2022/07/03 12:15:43;;;;;;;;;;;;;;;50.49;10.94;99362.97;5033487;28;20015;-57
2022/07/03 12:18:09;;;;;;;;;;;;;;;50.41;10.91;99359.00;5032196;28;19952;-56
2022/07/03 12:20:34;;;;;;;;;;;;;;;50.33;10.62;99373.66;5032260;28;19924;-54
2022/07/03 12:23:00;;;;;;;;;;;;;;;50.19;10.73;99357.19;5033339;28;19966;-53
2022/07/03 12:25:25;;;;;;;;;;;;;;;50.02;11.11;99357.94;5032127;28;20416;-54
2022/07/03 12:27:51;;;;;;;;;;;;;;;49.91;10.68;99362.13;5032075;28;20043;-55
2022/07/03 12:30:22;;;;;;;;;;;;;;;49.83;11.13;99359.31;5033322;28;20007;-53
2022/07/03 12:32:48;;;;;;;;;;;;;;;49.72;10.99;99344.94;5032995;28;19921;-54
2022/07/03 12:35:13;;;;;;;;;;;;;;;49.74;10.99;99352.88;5031681;28;19917;-55
2022/07/03 12:37:40;;;;;;;;;;;;;;;49.43;10.97;99352.91;5033102;28;20437;-55
2022/07/03 12:40:07;;;;;;;;;;;;;;;49.00;11.17;99358.09;5033118;28;20376;-53
2022/07/03 12:42:42;;;;;;;;;;;;;;;48.37;11.57;99348.75;5033025;28;20019;-55
2022/07/03 12:45:07;;;;;;;;;;;;;;;47.19;12.30;99334.69;5015368;28;19925;-51
2022/07/03 12:47:33;;;;;;;;;;;;;;;45.81;13.04;99339.56;5031515;28;19976;-52
2022/07/03 12:50:00;;;;;;;;;;;;;;;44.42;13.95;99343.91;5032709;28;19921;-51
2022/07/03 12:52:26;;;;;;;;;;;;;;;43.29;14.44;99325.25;5033005;28;19916;-54
2022/07/03 12:54:51;;;;;;;;;;;;;;;42.33;15.52;99327.81;5031440;28;20312;-52
2022/07/03 13:00:09;;;;;;;;;;;;;;;40.81;16.27;99323.94;5032474;28;19919;-50
2022/07/03 13:02:34;;;;;;;;;;;;;;;40.37;16.46;99320.44;5032726;28;19928;-53